createdAt,value
2022-09-05T00:02:03.496Z,25.98
2022-09-05T00:04:49.019Z,25.89
2022-09-05T00:07:59.677Z,25.61
2022-09-05T00:11:12.736Z,26.02
2022-09-05T00:13:44.941Z,25.96
2022-09-05T00:16:40.452Z,25.74
2022-09-05T00:24:20.641Z,25.69
2022-09-05T00:24:36.937Z,25.50
2022-09-05T00:26:04.338Z,25.58
2022-09-05T00:28:53.464Z,25.64
2022-09-05T00:31:53.834Z,25.64
2022-09-05T00:34:54.231Z,25.77
2022-09-05T00:37:35.584Z,25.63
2022-09-05T00:40:33.726Z,25.82
2022-09-05T00:43:24.131Z,26.04
2022-09-05T00:45:55.052Z,25.90
2022-09-05T00:48:47.372Z,26.02
2022-09-05T00:51:28.594Z,26.07
2022-09-05T00:54:15.814Z,26.01
2022-09-05T00:57:03.967Z,25.77
2022-09-05T01:00:14.930Z,25.30
2022-09-05T01:03:22.300Z,25.29
2022-09-05T01:05:58.440Z,25.33
2022-09-05T01:08:47.482Z,25.00
2022-09-05T01:11:27.786Z,25.09
2022-09-05T01:14:18.830Z,25.07
2022-09-05T01:17:04.762Z,24.84
2022-09-05T01:20:04.777Z,24.69
2022-09-05T01:23:08.737Z,24.87
2022-09-05T01:26:00.185Z,25.15
2022-09-05T01:29:17.314Z,25.02
2022-09-05T01:32:01.527Z,25.03
2022-09-05T01:34:57.767Z,25.22
2022-09-05T01:37:49.249Z,25.51
2022-09-05T01:40:43.553Z,25.36
2022-09-05T01:43:41.221Z,25.00
2022-09-05T01:46:36.172Z,25.06
2022-09-05T01:49:05.625Z,24.82
2022-09-05T01:52:08.154Z,24.95
2022-09-05T01:54:56.045Z,25.13
2022-09-05T01:57:38.627Z,24.86
2022-09-05T02:04:40.559Z,25.03
2022-09-05T02:07:40.667Z,25.04
2022-09-05T02:10:22.607Z,25.14
2022-09-05T02:13:03.106Z,24.93
2022-09-05T02:16:08.733Z,24.81
2022-09-05T02:18:58.542Z,24.81
2022-09-05T02:21:58.356Z,24.87
2022-09-05T02:24:37.711Z,24.95
2022-09-05T02:28:03.768Z,25.21
2022-09-05T02:30:23.422Z,24.78
2022-09-05T02:33:10.974Z,24.95
2022-09-05T02:35:54.801Z,24.81
2022-09-05T02:41:32.038Z,25.15
2022-09-05T02:45:10.981Z,25.04
2022-09-05T02:45:17.796Z,25.01
2022-09-05T02:48:12.705Z,25.04
2022-09-05T02:57:30.442Z,25.02
2022-09-05T02:57:33.107Z,25.18
2022-09-05T02:57:40.791Z,25.29
2022-09-05T03:00:01.757Z,25.25
2022-09-05T03:02:42.684Z,25.01
2022-09-05T03:05:19.459Z,24.98
2022-09-05T03:07:54.301Z,25.37
2022-09-05T03:10:53.195Z,24.70
2022-09-05T03:13:36.531Z,24.83
2022-09-05T03:16:52.055Z,24.42
2022-09-05T03:19:20.139Z,24.56
2022-09-05T03:22:10.677Z,24.46
2022-09-05T03:25:01.898Z,23.61
2022-09-05T03:28:08.394Z,23.34
2022-09-05T03:30:54.441Z,23.55
2022-09-05T03:33:37.103Z,24.03
2022-09-05T03:36:30.806Z,23.53
2022-09-05T03:39:09.074Z,23.13
2022-09-05T03:41:55.513Z,23.59
2022-09-05T06:09:48.008Z,24.42
2022-09-05T06:16:32.513Z,24.64
2022-09-05T06:41:38.501Z,26.81
2022-09-05T06:47:56.907Z,26.24
2022-09-05T06:51:08.369Z,26.50
2022-09-05T06:54:13.027Z,27.42
2022-09-05T06:57:00.975Z,29.14
2022-09-05T06:59:55.100Z,30.15
2022-09-05T07:03:06.549Z,31.24
2022-09-05T07:05:55.654Z,30.92
2022-09-05T07:09:42.350Z,31.41
2022-09-05T07:14:02.535Z,31.39
2022-09-05T07:25:27.408Z,32.56
2022-09-05T07:31:37.648Z,33.59
2022-09-05T07:34:33.109Z,33.43
2022-09-05T07:37:27.426Z,34.46
2022-09-05T07:56:59.519Z,35.77
2022-09-05T07:58:17.392Z,37.27
2022-09-05T08:01:15.518Z,38.85
2022-09-05T08:05:07.618Z,37.27
2022-09-05T08:08:10.720Z,36.00
2022-09-05T08:12:27.661Z,37.70
2022-09-05T08:16:02.895Z,36.08
2022-09-05T08:18:30.059Z,34.83
2022-09-05T08:21:27.134Z,35.22
2022-09-05T08:24:49.628Z,37.56
2022-09-05T08:27:45.481Z,37.90
2022-09-05T08:30:26.852Z,37.95
2022-09-05T08:56:17.005Z,35.17
2022-09-05T09:00:20.782Z,35.00
2022-09-05T09:08:13.223Z,33.61
2022-09-05T09:10:49.331Z,33.65
2022-09-05T10:45:03.762Z,33.21
2022-09-05T10:48:11.506Z,33.20
2022-09-05T10:50:49.607Z,33.11
2022-09-05T10:53:52.003Z,33.87
2022-09-05T10:57:35.680Z,33.53
2022-09-05T11:02:21.202Z,32.74
2022-09-05T11:03:55.840Z,32.07
2022-09-05T11:06:46.275Z,33.11
2022-09-05T11:09:19.604Z,33.28
2022-09-05T11:12:01.170Z,33.89
2022-09-05T11:14:56.462Z,33.26
2022-09-05T11:20:54.149Z,33.08
2022-09-05T11:23:59.470Z,32.53
2022-09-05T11:27:25.101Z,31.30
2022-09-05T11:30:45.548Z,32.25
2022-09-05T11:50:50.570Z,32.91
2022-09-05T11:50:52.676Z,31.84
2022-09-05T12:21:46.968Z,33.24
2022-09-05T12:41:36.240Z,33.02
2022-09-05T12:44:38.039Z,32.99
2022-09-05T12:51:45.123Z,33.12
2022-09-05T12:54:24.816Z,33.40
2022-09-05T13:01:08.112Z,33.84
2022-09-05T13:08:59.405Z,32.69
2022-09-05T13:22:11.829Z,33.04
2022-09-05T13:25:27.250Z,32.90
2022-09-05T13:28:11.876Z,33.34
2022-09-05T13:38:01.630Z,33.09
2022-09-05T13:56:40.301Z,32.66
2022-09-05T14:12:45.722Z,32.00
2022-09-05T14:15:42.970Z,32.12
2022-09-05T14:18:55.538Z,31.92
2022-09-05T14:21:27.883Z,31.74
2022-09-05T14:24:27.463Z,31.89
2022-09-05T14:27:03.118Z,32.15
2022-09-05T14:30:35.566Z,32.28
2022-09-05T14:37:43.566Z,32.37
2022-09-05T14:37:43.958Z,32.46
2022-09-05T14:40:46.361Z,32.20
2022-09-05T14:43:56.239Z,31.90
2022-09-05T14:46:38.703Z,32.31
2022-09-05T14:49:18.580Z,32.24
2022-09-05T14:51:48.542Z,32.13
2022-09-05T14:59:34.011Z,32.06
2022-09-05T15:02:57.900Z,32.22
2022-09-05T15:04:35.397Z,32.07
2022-09-05T15:07:15.946Z,32.34
2022-09-05T15:12:21.379Z,32.90
2022-09-05T15:12:45.924Z,32.55
2022-09-05T15:15:43.438Z,32.48
2022-09-05T15:18:40.413Z,32.15
2022-09-05T15:21:35.268Z,32.75
2022-09-05T15:24:36.900Z,32.23
2022-09-05T15:27:05.495Z,32.09
2022-09-05T15:29:35.383Z,32.44
2022-09-05T15:32:24.960Z,32.18
2022-09-05T15:35:09.275Z,32.64
2022-09-05T15:37:45.150Z,33.05
2022-09-05T15:40:23.106Z,33.14
2022-09-05T15:42:58.994Z,33.45
2022-09-05T15:46:08.490Z,33.29
2022-09-05T15:48:48.347Z,32.90
2022-09-05T15:52:27.298Z,33.07
2022-09-05T15:55:10.667Z,31.88
2022-09-05T15:57:41.374Z,31.93
2022-09-05T16:00:30.860Z,31.97
2022-09-05T16:03:40.956Z,31.62
2022-09-05T16:10:36.715Z,31.57
2022-09-05T16:10:44.907Z,31.70
2022-09-05T16:12:48.312Z,31.95
2022-09-05T16:19:25.019Z,32.46
2022-09-05T16:23:25.480Z,32.21
2022-09-05T16:23:30.259Z,32.08
2022-09-05T16:24:59.465Z,32.38
2022-09-05T16:27:44.262Z,32.05
2022-09-05T16:30:38.230Z,32.13
2022-09-05T16:33:29.666Z,32.26
2022-09-05T16:36:15.998Z,32.38
2022-09-05T16:39:01.537Z,31.01
2022-09-05T16:41:53.500Z,31.45
2022-09-05T16:45:58.692Z,31.24
2022-09-05T16:48:31.487Z,31.46
2022-09-05T16:51:37.975Z,31.60
2022-09-05T16:59:02.562Z,31.64
2022-09-05T17:02:55.765Z,31.45
2022-09-05T17:06:04.626Z,31.04
2022-09-05T17:16:30.748Z,29.91
2022-09-05T17:20:05.667Z,29.69
2022-09-05T17:29:32.368Z,29.43
2022-09-05T17:34:24.627Z,29.31
2022-09-05T17:37:32.514Z,29.38
2022-09-05T19:10:36.907Z,27.44
2022-09-05T20:18:27.191Z,26.33
2022-09-05T21:28:47.271Z,26.56
2022-09-05T22:56:01.747Z,25.10
2022-09-05T23:02:34.179Z,25.31
2022-09-05T23:05:09.236Z,25.21
2022-09-05T23:09:09.560Z,25.10
2022-09-05T23:11:42.151Z,24.97
2022-09-05T23:14:29.525Z,25.01
2022-09-05T23:16:57.596Z,25.03
2022-09-05T23:19:32.466Z,25.12
2022-09-05T23:22:00.405Z,24.99
2022-09-05T23:33:24.267Z,25.20
2022-09-05T23:36:03.849Z,24.84
2022-09-05T23:38:32.386Z,24.98
2022-09-05T23:41:06.097Z,24.82
2022-09-05T23:44:02.007Z,25.02
2022-09-05T23:46:30.130Z,24.94
2022-09-05T23:48:58.549Z,25.02
2022-09-05T23:51:27.461Z,25.14
2022-09-05T23:53:59.836Z,25.06
2022-09-05T23:56:32.327Z,24.85
2022-09-05T23:59:00.428Z,25.01
